Pagrindinis puslapis
METAR-TAF:

METAR-TAF

Oro uostai :

Ranchi, Indija

platuma: 23-18-51N, ilguma: 85-19-18E, Aukštis: 646 m

Dabartinis oras

Ataskaita buvo paskelbta 33 minutes, ne 14:30 UTC
Ramus vėjas
Temperatūra 20°C
Drėgmė 60%
Slėgis 1018 hPa
Matomumas: 2500 m
migla

METAR: VERC 191430Z 00000KT 2500 HZ NSC 20/12 Q1018 NOSIG

Laikas: 20:33 (15:03 UTC)

Prognozė

Ataskaita buvo paskelbta 4 valandos ir 3 minutes, ne 11:00 UTC
Prognozė galioja nuo 19 metu 12 UTC su 19 metu 21 UTC
Vėjas 3 kt iš Šiaurės/Šiaurės Rytų
Matomumas: 4000 m
migla
Tapsmas
nuo 19 metu 18 UTC su 19 metu 20 UTC
Matomumas: 3000 m
migla

TAF: VERC 191100Z 1912/1921 03003KT 4000 HZ NSC BECMG 1918/1920 3000 HZ

Orai ataskaitas ir orų prognozės (METAR, TAF).

turimą stotys yra geltonos ir raudonos taškus žemėlapyje.

Perkelti pele per norėdami pamatyti stoties vardą.

Tada spustelėkite, norėdami matyti oro stebėjimo ir prognozės.

Norėdami pakeisti žemėlapį: spustelėkite ant žalios mygtukų su juodo kryžiaus žemyn,; žalią mygtuką su brūkšneliu, jei norite nutolinti; arba žalių rodyklių gretimoms žemėlapius.


METAR-TAF: